createdAt,value
2022-12-25T19:26:08.393Z,9.57
2022-12-25T19:28:37.142Z,9.99
2022-12-25T19:31:07.814Z,10.36
2022-12-25T19:33:38.107Z,10.57
2022-12-25T19:36:10.789Z,10.84
2022-12-25T19:38:38.865Z,11.11
2022-12-25T19:41:18.784Z,11.25
2022-12-25T19:43:49.270Z,11.32
2022-12-25T19:46:21.237Z,11.37
2022-12-25T19:48:49.530Z,11.42
2022-12-25T19:51:21.762Z,11.38
2022-12-25T19:53:50.332Z,11.53
2022-12-25T19:56:18.854Z,11.47
2022-12-25T19:58:46.825Z,11.42
2022-12-25T20:01:18.506Z,11.47
2022-12-25T20:03:48.019Z,11.49
2022-12-25T20:06:22.040Z,11.32
2022-12-25T20:08:53.760Z,11.46
2022-12-25T20:11:24.282Z,11.51
2022-12-25T20:13:52.501Z,11.61
2022-12-25T20:16:20.497Z,11.50
2022-12-25T20:18:48.244Z,11.55
2022-12-25T20:21:20.124Z,11.56
2022-12-25T20:23:51.159Z,11.44
2022-12-25T20:26:23.970Z,11.21
2022-12-25T20:28:52.112Z,11.18
2022-12-25T20:31:30.141Z,11.17
2022-12-25T20:34:01.241Z,11.17
2022-12-25T20:36:36.115Z,11.07
2022-12-25T20:39:09.510Z,10.89
2022-12-25T20:41:40.535Z,10.87
2022-12-25T20:44:10.122Z,10.71
2022-12-25T20:46:38.834Z,10.68
2022-12-25T20:49:06.848Z,10.93
2022-12-25T20:51:34.666Z,10.78
2022-12-25T20:54:08.337Z,10.88
2022-12-25T20:56:36.688Z,10.66
2022-12-25T20:59:04.501Z,10.67
2022-12-25T21:01:32.519Z,10.71
2022-12-25T21:04:00.626Z,10.78
2022-12-25T21:06:28.460Z,10.84
2022-12-25T21:08:56.175Z,10.74
2022-12-25T21:11:24.192Z,10.90
2022-12-25T21:13:52.225Z,11.02
2022-12-25T21:16:22.709Z,10.98
2022-12-25T21:18:53.167Z,10.97
2022-12-25T21:21:22.123Z,11.00
2022-12-25T21:23:50.288Z,11.10
2022-12-25T21:26:28.566Z,11.14
2022-12-25T21:29:00.504Z,11.25
2022-12-25T21:31:30.221Z,11.27
2022-12-25T21:33:58.177Z,11.12
2022-12-25T21:36:30.766Z,11.19
2022-12-25T21:39:03.914Z,11.35
2022-12-25T21:41:33.579Z,11.55
2022-12-25T21:44:01.862Z,11.57
2022-12-25T21:46:30.038Z,11.45
2022-12-25T21:48:58.952Z,11.35
2022-12-25T21:51:52.126Z,11.50
2022-12-25T21:54:22.165Z,11.71
2022-12-25T21:56:50.239Z,11.62
2022-12-25T21:59:22.456Z,11.65
2022-12-25T22:01:52.407Z,11.84
2022-12-25T22:04:22.688Z,12.11
2022-12-25T22:07:09.377Z,12.22
2022-12-25T22:09:37.664Z,12.39
2022-12-25T22:12:27.395Z,12.35
2022-12-25T22:15:02.884Z,12.19
2022-12-25T22:17:54.417Z,12.11
2022-12-25T22:20:30.498Z,11.84
2022-12-25T22:22:58.672Z,11.74
2022-12-25T22:25:26.885Z,11.93
2022-12-25T22:27:55.021Z,11.97
2022-12-25T22:30:27.791Z,12.01
2022-12-25T22:32:56.010Z,12.12
2022-12-25T22:35:24.489Z,12.23
2022-12-25T22:37:54.035Z,12.42
2022-12-25T22:40:22.294Z,12.50
2022-12-25T22:42:57.493Z,12.53
2022-12-25T22:45:25.491Z,12.52
2022-12-25T22:47:53.067Z,12.67
2022-12-25T22:50:20.712Z,12.88
2022-12-25T22:52:48.278Z,12.88
2022-12-25T22:55:18.492Z,12.91
2022-12-25T22:57:46.332Z,12.92
2022-12-25T23:00:14.646Z,12.85
2022-12-25T23:02:42.422Z,12.77
2022-12-25T23:05:10.295Z,12.81
2022-12-25T23:07:37.951Z,12.64
2022-12-25T23:10:07.015Z,12.65
2022-12-25T23:12:53.249Z,12.50
2022-12-25T23:15:21.061Z,12.35
2022-12-25T23:18:07.070Z,12.43
2022-12-25T23:20:55.913Z,12.48
2022-12-25T23:23:42.723Z,12.45
2022-12-25T23:26:11.360Z,12.13
2022-12-25T23:29:00.909Z,12.07
2022-12-25T23:31:37.063Z,12.06
2022-12-25T23:34:07.146Z,12.14
2022-12-25T23:36:35.390Z,11.73
2022-12-25T23:39:09.651Z,11.82
2022-12-25T23:41:40.891Z,11.63
2022-12-25T23:44:11.364Z,11.73
2022-12-25T23:46:41.062Z,11.69
2022-12-25T23:49:26.150Z,11.41
2022-12-25T23:51:57.378Z,11.41
2022-12-25T23:54:30.817Z,11.35
2022-12-25T23:56:59.512Z,11.26
2022-12-25T23:59:34.278Z,10.91
